Madrid, Alabama
Current Conditions -  °F | °C
As of 10:01 AM on Sunday 23 Nov 2014 (Local Time) from KDHN Reporting Station
Heavy Rain Heavy Rain  
Wind Chill: 66°   Ceiling: 300
Heat Index: 66°   Visibility: 3mi
Dew Point: 66°   Wind: 8mph
Humidity: 100%   Direction: 130°SE
Pressure: 29.87"   Gusts: NA
Location:  31.0679°N, 85.3591°W
Report Text: KDHN 231601Z 13007KT 3SM +RA BR OVC003 19/19 A2987 RMK AO2 LTG DSNT N TSE1558 P0002
Loading
Personal Weather Stations






























Interactive Weather Map New forecast layout! Learn more

10-Day Weather Forecast

Advertisements
Track Severe Weather on mobile